createdAt,value
2022-11-05T00:02:23.698Z,10.80
2022-11-05T00:05:09.664Z,12.18
2022-11-05T00:07:59.051Z,11.30
2022-11-05T00:10:28.987Z,11.45
2022-11-05T00:13:17.257Z,11.67
2022-11-05T00:16:03.935Z,13.30
2022-11-05T00:18:31.195Z,13.05
2022-11-05T00:20:58.409Z,9.18
2022-11-05T00:23:44.071Z,12.90
2022-11-05T00:26:12.028Z,11.77
2022-11-05T00:28:43.921Z,11.23
2022-11-05T00:31:14.021Z,9.77
2022-11-05T00:33:42.540Z,8.50
2022-11-05T00:36:12.287Z,10.65
2022-11-05T00:38:39.444Z,10.57
2022-11-05T00:41:06.476Z,11.20
2022-11-05T00:43:52.588Z,7.75
2022-11-05T00:46:19.769Z,12.40
2022-11-05T00:49:05.562Z,13.82
2022-11-05T00:51:32.846Z,8.17
2022-11-05T00:53:59.946Z,10.55
2022-11-05T00:56:27.020Z,8.70
2022-11-05T00:58:55.675Z,13.02
2022-11-05T01:01:23.127Z,10.65
2022-11-05T01:03:51.919Z,8.47
2022-11-05T01:06:19.968Z,13.00
2022-11-05T01:08:47.425Z,9.23
2022-11-05T01:11:37.001Z,13.43
2022-11-05T01:14:08.286Z,11.07
2022-11-05T01:16:36.100Z,12.00
2022-11-05T01:19:04.428Z,9.75
2022-11-05T01:21:31.764Z,10.45
2022-11-05T01:23:59.310Z,9.88
2022-11-05T01:26:26.444Z,8.68
2022-11-05T01:29:00.465Z,9.30
2022-11-05T01:31:28.575Z,9.07
2022-11-05T01:33:55.708Z,14.55
2022-11-05T01:36:22.907Z,8.88
2022-11-05T01:38:49.952Z,7.80
2022-11-05T01:41:18.937Z,10.33
2022-11-05T01:43:55.531Z,11.25
2022-11-05T01:46:34.653Z,13.32
2022-11-05T01:49:17.405Z,9.60
2022-11-05T01:51:44.977Z,11.27
2022-11-05T01:54:15.008Z,10.17
2022-11-05T01:56:49.291Z,13.45
2022-11-05T01:59:19.890Z,9.57
2022-11-05T02:01:47.052Z,10.80
2022-11-05T02:04:31.052Z,14.02
2022-11-05T02:06:58.325Z,8.40
2022-11-05T02:09:29.737Z,10.95
2022-11-05T02:11:57.660Z,10.05
2022-11-05T02:14:25.454Z,12.70
2022-11-05T02:17:13.701Z,9.88
2022-11-05T02:20:02.625Z,11.53
2022-11-05T02:22:48.160Z,10.93
2022-11-05T02:25:20.929Z,10.15
2022-11-05T02:28:01.610Z,13.35
2022-11-05T02:31:12.620Z,9.32
2022-11-05T02:33:41.891Z,17.07
2022-11-05T02:36:28.899Z,11.85
2022-11-05T02:39:04.211Z,10.60
2022-11-05T02:41:46.398Z,10.95
2022-11-05T02:44:25.411Z,11.18
2022-11-05T02:47:07.610Z,16.50
2022-11-05T02:50:11.460Z,11.85
2022-11-05T02:53:07.860Z,13.18
2022-11-05T02:55:42.039Z,9.65
2022-11-05T02:58:09.985Z,11.52
2022-11-05T03:00:52.981Z,14.93
2022-11-05T03:03:27.091Z,12.13
2022-11-05T03:05:58.193Z,15.70
2022-11-05T03:08:43.638Z,13.45
2022-11-05T03:11:14.510Z,11.52
2022-11-05T03:13:54.432Z,8.40
2022-11-05T03:16:46.176Z,10.93
2022-11-05T03:19:19.379Z,14.77
2022-11-05T03:21:58.190Z,9.68
2022-11-05T03:24:29.716Z,15.13
2022-11-05T03:27:01.003Z,15.20
2022-11-05T03:29:33.392Z,12.88
2022-11-05T03:32:02.009Z,13.15
2022-11-05T03:34:33.868Z,13.18
2022-11-05T03:37:02.801Z,12.40
2022-11-05T03:39:34.060Z,13.07
2022-11-05T03:42:06.624Z,13.88
2022-11-05T03:44:36.263Z,13.68
2022-11-05T03:47:06.964Z,14.65
2022-11-05T03:50:35.803Z,16.23
2022-11-05T03:53:29.509Z,16.97
2022-11-05T03:56:03.554Z,18.55
2022-11-05T03:58:30.729Z,14.15
2022-11-05T04:01:00.510Z,14.50
2022-11-05T04:03:27.669Z,14.20
2022-11-05T04:06:14.674Z,16.57
2022-11-05T04:09:00.017Z,14.00
2022-11-05T04:11:45.947Z,14.25
2022-11-05T04:14:13.168Z,15.07
2022-11-05T04:16:58.852Z,13.65
2022-11-05T04:19:44.326Z,13.30
2022-11-05T04:22:29.731Z,14.20
2022-11-05T04:24:56.805Z,19.15
2022-11-05T04:27:23.902Z,13.23
2022-11-05T04:30:09.361Z,16.05
2022-11-05T04:32:36.547Z,15.43
2022-11-05T04:35:03.659Z,11.88
2022-11-05T04:37:30.745Z,14.85
2022-11-05T04:39:57.815Z,15.80
2022-11-05T04:42:24.892Z,14.15
2022-11-05T04:44:52.043Z,13.80
2022-11-05T04:47:19.091Z,13.52
2022-11-05T04:49:46.197Z,13.57
2022-11-05T04:52:13.291Z,16.90
2022-11-05T04:54:40.598Z,11.20
2022-11-05T04:57:08.260Z,13.37
2022-11-05T04:59:35.400Z,14.68
2022-11-05T05:02:02.556Z,13.27
2022-11-05T05:04:29.710Z,16.83
2022-11-05T05:06:56.797Z,13.88
2022-11-05T05:09:23.876Z,14.60
2022-11-05T05:11:50.946Z,15.07
2022-11-05T05:14:18.125Z,14.93
2022-11-05T05:16:45.196Z,15.18
2022-11-05T05:19:12.261Z,12.15
2022-11-05T05:21:39.432Z,16.57
2022-11-05T05:24:14.538Z,16.02
2022-11-05T05:26:46.890Z,15.05
2022-11-05T05:29:14.149Z,14.10
2022-11-05T05:31:41.776Z,15.07
2022-11-05T05:34:11.824Z,12.83
2022-11-05T05:36:38.944Z,13.70
2022-11-05T05:39:07.366Z,14.43
2022-11-05T05:41:34.580Z,17.20
2022-11-05T05:44:01.677Z,14.98
2022-11-05T05:46:28.737Z,14.40
2022-11-05T05:48:55.803Z,14.27
2022-11-05T05:51:23.085Z,14.82
2022-11-05T05:53:50.898Z,15.20
2022-11-05T05:56:20.928Z,15.75
2022-11-05T05:58:51.424Z,11.57
2022-11-05T06:01:25.008Z,13.48
2022-11-05T06:03:52.963Z,14.25
2022-11-05T06:06:21.447Z,17.20
2022-11-05T06:08:51.952Z,13.05
2022-11-05T06:11:19.022Z,15.17
2022-11-05T06:13:46.062Z,11.30
2022-11-05T06:16:13.230Z,12.93
2022-11-05T06:18:40.634Z,12.75
2022-11-05T06:21:09.051Z,12.85
2022-11-05T06:23:37.510Z,15.70
2022-11-05T06:26:07.192Z,19.65
2022-11-05T06:28:35.427Z,16.13
2022-11-05T06:31:03.470Z,16.67
2022-11-05T06:33:31.349Z,12.73
2022-11-05T06:36:00.099Z,12.83
2022-11-05T06:38:27.751Z,16.30
2022-11-05T06:40:58.481Z,14.05
2022-11-05T06:43:27.329Z,14.35
2022-11-05T06:45:55.720Z,13.57
2022-11-05T06:48:23.236Z,11.53
2022-11-05T06:50:50.338Z,15.73
2022-11-05T06:53:18.171Z,14.88
2022-11-05T06:55:45.229Z,14.45
2022-11-05T06:58:12.363Z,15.30
2022-11-05T07:00:39.876Z,13.60
2022-11-05T07:03:09.204Z,13.90
2022-11-05T07:05:45.622Z,17.52
2022-11-05T07:08:12.730Z,16.27
2022-11-05T07:10:39.913Z,15.95
2022-11-05T07:13:08.754Z,15.47
2022-11-05T07:15:37.272Z,13.38
2022-11-05T07:18:07.567Z,15.10
2022-11-05T07:20:35.848Z,15.40
2022-11-05T07:23:11.316Z,18.42
2022-11-05T07:25:43.120Z,17.87
2022-11-05T07:28:11.203Z,16.48
2022-11-05T07:30:39.309Z,12.45
2022-11-05T07:33:06.672Z,12.63
2022-11-05T07:35:34.128Z,13.85
2022-11-05T07:38:01.192Z,9.90
2022-11-05T07:40:30.148Z,15.60
2022-11-05T07:42:59.237Z,14.57
2022-11-05T07:45:27.693Z,13.02
2022-11-05T07:47:58.014Z,13.00
2022-11-05T07:50:27.363Z,13.43
2022-11-05T07:53:00.348Z,12.65
2022-11-05T07:55:28.229Z,10.70
2022-11-05T07:57:55.629Z,11.93
2022-11-05T08:00:24.274Z,12.18
2022-11-05T08:03:07.867Z,19.77
2022-11-05T08:05:39.064Z,13.48
2022-11-05T08:08:07.976Z,16.73
2022-11-05T08:10:36.200Z,13.75
2022-11-05T08:13:07.130Z,10.43
2022-11-05T08:15:34.798Z,13.00
2022-11-05T08:18:15.623Z,18.63
2022-11-05T08:20:44.252Z,17.20
2022-11-05T08:23:11.898Z,12.07
2022-11-05T08:25:39.832Z,12.90
2022-11-05T08:28:10.267Z,11.73
2022-11-05T08:30:37.587Z,12.75
2022-11-05T08:33:07.596Z,9.65
2022-11-05T08:35:36.346Z,12.23
2022-11-05T08:38:05.906Z,16.75
2022-11-05T08:40:35.155Z,10.63
2022-11-05T08:43:06.924Z,12.40
2022-11-05T08:45:38.352Z,13.48
2022-11-05T08:48:08.780Z,17.42
2022-11-05T08:50:37.206Z,11.55
2022-11-05T08:53:06.032Z,13.57
2022-11-05T08:55:34.345Z,14.38
2022-11-05T08:58:07.570Z,13.15
2022-11-05T09:00:36.383Z,13.95
2022-11-05T09:03:05.825Z,10.52
2022-11-05T09:05:38.222Z,12.90
2022-11-05T09:08:18.671Z,13.75
2022-11-05T09:10:47.231Z,16.60
2022-11-05T09:13:18.775Z,12.18
2022-11-05T09:15:47.520Z,13.88
2022-11-05T09:18:15.274Z,10.33
2022-11-05T09:20:42.819Z,11.88
2022-11-05T09:23:11.186Z,9.98
2022-11-05T09:25:39.118Z,11.68
2022-11-05T09:28:18.478Z,10.43
2022-11-05T09:30:48.018Z,17.30
2022-11-05T09:33:16.481Z,9.23
2022-11-05T09:35:43.715Z,10.55
2022-11-05T09:38:10.949Z,15.93
2022-11-05T09:40:44.555Z,13.82
2022-11-05T09:43:20.256Z,12.63
2022-11-05T09:45:49.788Z,12.55
2022-11-05T09:48:18.184Z,15.25
2022-11-05T09:50:46.263Z,12.25
2022-11-05T09:53:17.953Z,13.85
2022-11-05T09:55:50.952Z,13.57
2022-11-05T09:58:40.894Z,14.60
2022-11-05T10:01:15.733Z,9.85
2022-11-05T10:03:46.477Z,15.68
2022-11-05T10:06:20.055Z,11.73
2022-11-05T10:08:51.918Z,12.07
2022-11-05T10:11:25.157Z,14.95
2022-11-05T10:13:56.419Z,9.80
2022-11-05T10:16:31.155Z,9.40
2022-11-05T10:19:09.660Z,10.85
2022-11-05T10:22:04.819Z,10.73
2022-11-05T10:24:25.175Z,8.40
2022-11-05T10:26:53.693Z,11.40
2022-11-05T10:29:29.237Z,11.35
2022-11-05T10:31:57.562Z,8.73
2022-11-05T10:34:27.955Z,8.87
2022-11-05T10:36:55.085Z,11.45
2022-11-05T10:39:23.463Z,11.65
2022-11-05T10:42:38.228Z,11.35
2022-11-05T10:45:18.162Z,7.25
2022-11-05T10:48:09.713Z,7.30
2022-11-05T10:50:36.974Z,11.82
2022-11-05T10:53:27.110Z,7.93
2022-11-05T10:55:54.609Z,15.65
2022-11-05T10:58:27.700Z,10.18
2022-11-05T11:00:54.693Z,10.43
2022-11-05T11:03:44.925Z,12.82
2022-11-05T11:06:31.417Z,9.77
2022-11-05T11:09:02.063Z,11.30
2022-11-05T11:11:32.748Z,7.50
2022-11-05T11:14:09.455Z,7.50
2022-11-05T11:16:42.449Z,7.43
2022-11-05T11:19:31.848Z,8.52
2022-11-05T11:22:05.090Z,8.93
2022-11-05T11:24:39.223Z,9.15
2022-11-05T11:27:27.466Z,9.07
2022-11-05T11:30:00.346Z,9.93
2022-11-05T11:32:35.610Z,16.83
2022-11-05T11:35:04.111Z,17.45
2022-11-05T11:37:34.928Z,20.10
2022-11-05T11:40:29.217Z,10.93
2022-11-05T11:42:58.268Z,10.85
2022-11-05T11:45:44.021Z,8.25
2022-11-05T11:48:17.380Z,11.40
2022-11-05T11:50:49.050Z,12.27
2022-11-05T11:53:22.101Z,11.40
2022-11-05T11:55:55.118Z,10.32
2022-11-05T11:58:23.777Z,10.43
2022-11-05T12:00:57.209Z,12.10
2022-11-05T12:03:46.639Z,6.38
2022-11-05T12:06:27.597Z,7.70
2022-11-05T12:09:30.797Z,8.20
2022-11-05T12:12:09.218Z,9.70
2022-11-05T12:14:46.271Z,9.13
2022-11-05T12:17:52.663Z,10.40
2022-11-05T12:20:38.607Z,6.10
2022-11-05T12:23:24.307Z,7.82
2022-11-05T12:25:57.809Z,10.52
2022-11-05T12:29:12.075Z,10.38
2022-11-05T12:31:44.613Z,8.80
2022-11-05T12:34:24.842Z,11.27
2022-11-05T12:37:30.777Z,6.53
2022-11-05T12:40:29.141Z,9.07
2022-11-05T12:43:27.576Z,11.50
2022-11-05T12:46:17.731Z,5.93
2022-11-05T12:48:45.277Z,7.00
2022-11-05T12:51:38.549Z,13.02
2022-11-05T12:54:20.884Z,10.80
2022-11-05T12:56:52.686Z,9.32
2022-11-05T12:59:58.365Z,6.93
2022-11-05T13:03:19.126Z,8.00
2022-11-05T13:05:56.796Z,7.15
2022-11-05T13:08:32.873Z,7.63
2022-11-05T13:11:21.611Z,7.28
2022-11-05T13:13:59.683Z,8.82
2022-11-05T13:16:38.052Z,7.77
2022-11-05T13:19:39.697Z,4.68
2022-11-05T13:22:15.122Z,10.23
2022-11-05T13:24:49.574Z,4.88
2022-11-05T13:27:22.600Z,7.03
2022-11-05T13:29:52.929Z,6.47
2022-11-05T13:32:36.439Z,5.55
2022-11-05T13:35:05.606Z,5.38
2022-11-05T13:37:59.317Z,6.55
2022-11-05T13:40:47.123Z,8.73
2022-11-05T13:43:34.065Z,7.83
2022-11-05T13:46:42.447Z,8.05
2022-11-05T13:49:30.598Z,9.57
2022-11-05T13:52:28.606Z,6.20
2022-11-05T13:55:13.807Z,8.95
2022-11-05T13:58:00.454Z,8.52
2022-11-05T14:00:29.928Z,5.13
2022-11-05T14:03:02.143Z,4.13
2022-11-05T14:05:33.503Z,4.25
2022-11-05T14:08:08.046Z,7.68
2022-11-05T14:10:45.083Z,5.45
2022-11-05T14:13:19.446Z,6.40
2022-11-05T14:16:00.265Z,4.30
2022-11-05T14:19:11.897Z,6.68
2022-11-05T14:21:59.312Z,5.10
2022-11-05T14:24:43.315Z,5.88
2022-11-05T14:27:13.351Z,4.95
2022-11-05T14:29:41.685Z,4.53
2022-11-05T14:32:20.966Z,7.70
2022-11-05T14:35:12.830Z,4.15
2022-11-05T14:37:41.495Z,8.75
2022-11-05T14:40:33.167Z,5.80
2022-11-05T14:43:03.426Z,9.27
2022-11-05T14:45:39.486Z,5.85
2022-11-05T14:48:35.514Z,8.82
2022-11-05T14:51:02.882Z,5.65
2022-11-05T14:53:35.214Z,9.43
2022-11-05T14:56:09.868Z,4.30
2022-11-05T14:58:39.262Z,7.43
2022-11-05T15:01:15.314Z,6.95
2022-11-05T15:03:46.271Z,4.05
2022-11-05T15:06:28.946Z,7.97
2022-11-05T15:08:59.852Z,7.03
2022-11-05T15:11:37.389Z,3.83
2022-11-05T15:14:22.980Z,6.93
2022-11-05T15:16:54.997Z,8.20
2022-11-05T15:19:25.604Z,7.70
2022-11-05T15:21:54.092Z,5.93
2022-11-05T15:24:21.920Z,3.88
2022-11-05T15:26:52.376Z,4.32
2022-11-05T15:29:24.803Z,6.55
2022-11-05T15:31:53.575Z,7.03
2022-11-05T15:34:31.902Z,5.27
2022-11-05T15:37:04.221Z,7.85
2022-11-05T15:39:40.371Z,10.38
2022-11-05T15:42:22.967Z,6.80
2022-11-05T15:44:55.029Z,8.77
2022-11-05T15:47:31.817Z,5.37
2022-11-05T15:50:03.418Z,6.13
2022-11-05T15:52:36.624Z,6.00
2022-11-05T15:55:09.743Z,7.00
2022-11-05T15:57:40.293Z,8.18
2022-11-05T16:00:16.556Z,8.67
2022-11-05T16:02:44.160Z,7.85
2022-11-05T16:05:13.308Z,9.77
2022-11-05T16:07:45.074Z,10.05
2022-11-05T16:10:29.559Z,9.18
2022-11-05T16:12:57.000Z,6.37
2022-11-05T16:15:26.080Z,9.82
2022-11-05T16:18:00.200Z,8.23
2022-11-05T16:20:35.382Z,8.68
2022-11-05T16:23:05.549Z,6.60
2022-11-05T16:25:43.097Z,12.57
2022-11-05T16:28:23.720Z,12.13
2022-11-05T16:31:01.683Z,12.57
2022-11-05T16:33:47.381Z,13.32
2022-11-05T16:36:14.655Z,14.90
2022-11-05T16:38:41.922Z,11.73
2022-11-05T16:41:17.311Z,11.05
2022-11-05T16:43:55.973Z,15.57
2022-11-05T16:46:24.448Z,9.35
2022-11-05T16:48:51.695Z,13.25
2022-11-05T16:51:23.348Z,10.37
2022-11-05T16:53:53.400Z,13.02
2022-11-05T16:56:22.104Z,11.52
2022-11-05T16:58:49.863Z,13.45
2022-11-05T17:01:19.597Z,16.35
2022-11-05T17:03:56.146Z,21.27
2022-11-05T17:06:26.423Z,15.30
2022-11-05T17:08:53.513Z,14.65
2022-11-05T17:11:21.465Z,16.13
2022-11-05T17:13:48.581Z,14.82
2022-11-05T17:16:17.186Z,13.67
2022-11-05T17:18:44.306Z,16.40
2022-11-05T17:21:12.613Z,24.25
2022-11-05T17:23:39.728Z,14.32
2022-11-05T17:26:09.879Z,13.57
2022-11-05T17:28:37.991Z,13.53
2022-11-05T17:31:07.096Z,15.85
2022-11-05T17:33:34.521Z,16.17
2022-11-05T17:36:08.894Z,13.05
2022-11-05T17:38:36.145Z,18.10
2022-11-05T17:41:13.534Z,13.53
2022-11-05T17:43:40.807Z,17.98
2022-11-05T17:46:09.734Z,11.73
2022-11-05T17:48:37.965Z,14.00
2022-11-05T17:51:09.042Z,14.43
2022-11-05T17:53:37.131Z,23.10
2022-11-05T17:56:13.340Z,16.48
2022-11-05T17:58:41.030Z,20.17
2022-11-05T18:01:09.338Z,14.18
2022-11-05T18:03:36.503Z,13.20
2022-11-05T18:06:06.957Z,14.67
2022-11-05T18:08:34.043Z,16.25
2022-11-05T18:11:01.107Z,13.55
2022-11-05T18:13:28.191Z,15.93
2022-11-05T18:15:55.384Z,15.85
2022-11-05T18:18:22.419Z,17.10
2022-11-05T18:20:49.559Z,15.15
2022-11-05T18:23:16.645Z,18.33
2022-11-05T18:25:44.053Z,13.05
2022-11-05T18:28:11.466Z,19.52
2022-11-05T18:30:39.474Z,16.30
2022-11-05T18:33:09.648Z,17.10
2022-11-05T18:35:42.926Z,19.05
2022-11-05T18:38:10.524Z,16.52
2022-11-05T18:40:37.597Z,17.23
2022-11-05T18:43:04.762Z,17.90
2022-11-05T18:45:33.335Z,15.93
2022-11-05T18:48:01.635Z,19.55
2022-11-05T18:50:29.149Z,15.90
2022-11-05T18:52:56.313Z,17.40
2022-11-05T18:55:24.436Z,18.53
2022-11-05T18:57:51.547Z,18.05
2022-11-05T19:00:18.672Z,21.10
2022-11-05T19:02:45.868Z,18.52
2022-11-05T19:05:29.953Z,21.33
2022-11-05T19:07:57.888Z,17.13
2022-11-05T19:10:25.406Z,21.73
2022-11-05T19:12:52.999Z,17.13
2022-11-05T19:15:20.104Z,18.08
2022-11-05T19:17:47.255Z,16.17
2022-11-05T19:20:14.532Z,17.10
2022-11-05T19:22:41.631Z,17.15
2022-11-05T19:25:08.759Z,17.85
2022-11-05T19:27:36.733Z,21.58
2022-11-05T19:30:05.031Z,14.93
2022-11-05T19:32:32.099Z,17.83
2022-11-05T19:34:59.154Z,17.00
2022-11-05T19:37:26.221Z,16.42
2022-11-05T19:39:53.261Z,15.80
2022-11-05T19:42:20.312Z,18.55
2022-11-05T19:44:47.376Z,14.00
2022-11-05T19:47:14.444Z,17.10
2022-11-05T19:49:41.552Z,18.10
2022-11-05T19:52:08.742Z,17.42
2022-11-05T19:54:35.969Z,16.20
2022-11-05T19:57:03.518Z,17.33
2022-11-05T19:59:30.665Z,16.92
2022-11-05T20:01:57.881Z,16.83
2022-11-05T20:04:25.044Z,18.83
2022-11-05T20:06:52.128Z,18.52
2022-11-05T20:09:22.088Z,21.17
2022-11-05T20:11:54.414Z,20.35
2022-11-05T20:14:23.166Z,16.63
2022-11-05T20:16:50.396Z,16.65
2022-11-05T20:19:19.780Z,16.95
2022-11-05T20:21:47.059Z,15.90
2022-11-05T20:24:24.883Z,14.98
2022-11-05T20:26:56.137Z,15.88
2022-11-05T20:29:24.227Z,19.67
2022-11-05T20:31:52.360Z,19.23
2022-11-05T20:34:19.465Z,14.30
2022-11-05T20:36:46.649Z,15.43
2022-11-05T20:39:13.724Z,16.98
2022-11-05T20:41:41.177Z,15.90
2022-11-05T20:44:08.249Z,17.75
2022-11-05T20:46:35.432Z,16.93
2022-11-05T20:49:02.891Z,15.60
2022-11-05T20:51:30.124Z,16.52
2022-11-05T20:53:59.190Z,16.60
2022-11-05T20:56:29.428Z,20.27
2022-11-05T20:58:58.391Z,14.80
2022-11-05T21:01:26.743Z,15.70
2022-11-05T21:03:54.131Z,16.80
2022-11-05T21:06:21.360Z,19.80
2022-11-05T21:08:50.075Z,15.82
2022-11-05T21:11:18.394Z,20.47
2022-11-05T21:13:45.942Z,22.83
2022-11-05T21:16:17.994Z,17.48
2022-11-05T21:18:46.613Z,19.35
2022-11-05T21:21:17.812Z,19.80
2022-11-05T21:23:45.138Z,23.17
2022-11-05T21:26:13.781Z,16.38
2022-11-05T21:28:41.565Z,22.02
2022-11-05T21:31:09.670Z,18.83
2022-11-05T21:33:37.236Z,21.13
2022-11-05T21:36:09.287Z,19.10
2022-11-05T21:38:36.733Z,18.05
2022-11-05T21:41:04.047Z,17.75
2022-11-05T21:43:31.329Z,19.35
2022-11-05T21:46:02.672Z,21.10
2022-11-05T21:48:30.231Z,19.13
2022-11-05T21:51:15.591Z,15.07
2022-11-05T21:54:00.936Z,19.65
2022-11-05T21:56:47.189Z,16.70
2022-11-05T21:59:35.604Z,18.15
2022-11-05T22:02:03.752Z,16.30
2022-11-05T22:04:37.457Z,15.63
2022-11-05T22:07:06.480Z,17.25
2022-11-05T22:09:34.196Z,14.38
2022-11-05T22:12:01.637Z,18.13
2022-11-05T22:14:28.883Z,17.33
2022-11-05T22:16:56.892Z,18.13
2022-11-05T22:19:24.412Z,18.23
2022-11-05T22:21:51.600Z,16.75
2022-11-05T22:24:19.398Z,17.25
2022-11-05T22:26:47.017Z,17.30
2022-11-05T22:29:14.822Z,20.40
2022-11-05T22:31:42.015Z,19.52
2022-11-05T22:34:10.245Z,19.00
2022-11-05T22:36:37.401Z,21.95
2022-11-05T22:39:05.117Z,19.50
2022-11-05T22:41:32.449Z,19.73
2022-11-05T22:43:59.540Z,16.80
2022-11-05T22:46:27.237Z,16.83
2022-11-05T22:48:55.963Z,16.50
2022-11-05T22:51:25.154Z,18.33
2022-11-05T22:53:52.771Z,18.45
2022-11-05T22:56:21.156Z,17.58
2022-11-05T22:58:48.752Z,18.02
2022-11-05T23:01:16.432Z,16.20
2022-11-05T23:03:45.124Z,16.27
2022-11-05T23:06:32.847Z,17.50
2022-11-05T23:09:19.839Z,15.52
2022-11-05T23:11:49.358Z,16.92
2022-11-05T23:14:16.841Z,16.95
2022-11-05T23:17:02.885Z,19.20
2022-11-05T23:19:49.219Z,17.88
2022-11-05T23:22:47.399Z,17.98
2022-11-05T23:25:17.560Z,17.85
2022-11-05T23:27:46.372Z,17.30
2022-11-05T23:30:19.206Z,14.77
2022-11-05T23:32:46.697Z,17.08
2022-11-05T23:35:14.155Z,16.75
2022-11-05T23:37:59.873Z,16.13
2022-11-05T23:40:29.759Z,14.55
2022-11-05T23:43:16.142Z,16.77
2022-11-05T23:46:03.010Z,15.35
2022-11-05T23:48:35.111Z,14.55
2022-11-05T23:51:07.544Z,16.10
2022-11-05T23:53:36.295Z,15.98
2022-11-05T23:56:09.142Z,14.20
2022-11-05T23:58:37.822Z,14.77
